PWSweather.com
Personal Weather Stations
Station Observations
DW6827
Bills, Chadron, NE 69337

BillsChadron, NE 69337

Lat: 42.8275, Lon: -103.0094

Elevation: 3367

Station Type: Davis Vantage pro 2

http://billandcorena.com/weatherdisplay.htm

Latest ConditionsUpdated 4:10:01 PM MDT Friday, Oct 18, 2019
Currently Today's Max Today's Min Today's Average
Temperature 51.4°F10.8°C 55.5°F13.1°C 36.5°F2.5°C 47.1°F8.4°C
Dew Point 35.8°F2.1°C 38.4°F3.6°C 28.4°F-2.0°C 33.2°F0.7°C
Winds 10.0 mph SW16.1 kmh SW 17.0 mph -27.4 kmh - - 5.1 mph 8.2 kmh
Wind Gusts 14.0 mph22.5 kmh 25.0 mph40.2 kmh - -
Humidity 55% 74% 40% 59%
Pressure 29.69 in1005.4 mb 29.69 in1005.4 mb 29.41 in995.9 mb -
Hour Temp Dew Point Humidity Winds Wind Gusts Pressure Precip Precip Rate Daily Precip Total
04:10 PM 51.4°F10.8°C 35.8°F2.1°C 55% 10.0 mph SW16.1 kmh SW 14.0 mph22.5 kmh 29.69 in1005.4 mb 0.00 in0.0 mm 0.00 in0.0 mm 0.00 in0.0 mm
04:00 PM 51.5°F10.8°C 36.3°F2.4°C 56% 10.0 mph WSW16.1 kmh WSW 14.0 mph22.5 kmh 29.68 in1005.1 mb 0.00 in0.0 mm 0.00 in0.0 mm 0.00 in0.0 mm
03:50 PM 50.5°F10.3°C 36.7°F2.6°C 59% 9.0 mph SW14.5 kmh SW 12.0 mph19.3 kmh 29.68 in1005.1 mb 0.00 in0.0 mm 0.00 in0.0 mm 0.00 in0.0 mm
03:40 PM 50.2°F10.1°C 36.0°F2.2°C 58% 9.0 mph WSW14.5 kmh WSW 14.0 mph22.5 kmh 29.68 in1005.1 mb 0.00 in0.0 mm 0.00 in0.0 mm 0.00 in0.0 mm
03:30 PM 50.3°F10.2°C 36.1°F2.3°C 58% 10.0 mph WSW16.1 kmh WSW 16.0 mph25.7 kmh 29.67 in1004.7 mb 0.00 in0.0 mm 0.00 in0.0 mm 0.00 in0.0 mm
03:20 PM 50.9°F10.5°C 37.1°F2.8°C 59% 11.0 mph WSW17.7 kmh WSW 18.0 mph29.0 kmh 29.66 in1004.4 mb 0.00 in0.0 mm 0.00 in0.0 mm 0.00 in0.0 mm
03:10 PM 51.3°F10.7°C 36.6°F2.6°C 57% 11.0 mph W17.7 kmh W 17.0 mph27.4 kmh 29.66 in1004.4 mb 0.00 in0.0 mm 0.00 in0.0 mm 0.00 in0.0 mm
03:00 PM 51.8°F11.0°C 36.1°F2.3°C 55% 13.0 mph W20.9 kmh W 21.0 mph33.8 kmh 29.65 in1004.1 mb 0.00 in0.0 mm 0.00 in0.0 mm 0.00 in0.0 mm
02:50 PM 52.0°F11.1°C 36.3°F2.4°C 55% 13.0 mph WSW20.9 kmh WSW 25.0 mph40.2 kmh 29.64 in1003.7 mb 0.00 in0.0 mm 0.00 in0.0 mm 0.00 in0.0 mm
02:40 PM 52.9°F11.6°C 36.7°F2.6°C 54% 15.0 mph W24.1 kmh W 23.0 mph37.0 kmh 29.64 in1003.7 mb 0.00 in0.0 mm 0.00 in0.0 mm 0.00 in0.0 mm
02:30 PM 53.9°F12.2°C 36.7°F2.6°C 52% 14.0 mph W22.5 kmh W 21.0 mph33.8 kmh 29.64 in1003.7 mb 0.00 in0.0 mm 0.00 in0.0 mm 0.00 in0.0 mm
02:20 PM 55.3°F12.9°C 37.0°F2.8°C 50% 17.0 mph WSW27.4 kmh WSW 25.0 mph40.2 kmh 29.63 in1003.4 mb 0.00 in0.0 mm 0.00 in0.0 mm 0.00 in0.0 mm
02:10 PM 54.2°F12.3°C 37.9°F3.3°C 54% 15.0 mph W24.1 kmh W 24.0 mph38.6 kmh 29.63 in1003.4 mb 0.00 in0.0 mm 0.00 in0.0 mm 0.00 in0.0 mm
02:00 PM 53.6°F12.0°C 37.3°F2.9°C 54% 14.0 mph WSW22.5 kmh WSW 22.0 mph35.4 kmh 29.63 in1003.4 mb 0.00 in0.0 mm 0.00 in0.0 mm 0.00 in0.0 mm
01:50 PM 53.5°F11.9°C 37.7°F3.2°C 55% 15.0 mph W24.1 kmh W 22.0 mph35.4 kmh 29.63 in1003.4 mb 0.00 in0.0 mm 0.00 in0.0 mm 0.00 in0.0 mm
01:40 PM 52.9°F11.6°C 37.6°F3.1°C 56% 13.0 mph WSW20.9 kmh WSW 22.0 mph35.4 kmh 29.63 in1003.4 mb 0.00 in0.0 mm 0.00 in0.0 mm 0.00 in0.0 mm
01:30 PM 53.0°F11.7°C 38.2°F3.4°C 57% 16.0 mph WSW25.7 kmh WSW 18.0 mph29.0 kmh 29.63 in1003.4 mb 0.00 in0.0 mm 0.00 in0.0 mm 0.00 in0.0 mm
01:20 PM 52.5°F11.4°C 38.1°F3.4°C 58% 11.0 mph WSW17.7 kmh WSW 18.0 mph29.0 kmh 29.63 in1003.4 mb 0.00 in0.0 mm 0.00 in0.0 mm 0.00 in0.0 mm
01:10 PM 52.6°F11.4°C 38.2°F3.4°C 58% 11.0 mph WSW17.7 kmh WSW 20.0 mph32.2 kmh 29.62 in1003.0 mb 0.00 in0.0 mm 0.00 in0.0 mm 0.00 in0.0 mm
01:00 PM 52.8°F11.6°C 38.0°F3.3°C 57% 13.0 mph WSW20.9 kmh WSW 20.0 mph32.2 kmh 29.60 in1002.4 mb 0.00 in0.0 mm 0.00 in0.0 mm 0.00 in0.0 mm
12:50 PM 52.8°F11.6°C 38.4°F3.6°C 58% 11.0 mph WSW17.7 kmh WSW 19.0 mph30.6 kmh 29.61 in1002.7 mb 0.00 in0.0 mm 0.00 in0.0 mm 0.00 in0.0 mm
12:40 PM 52.0°F11.1°C 38.1°F3.4°C 59% 11.0 mph WSW17.7 kmh WSW 17.0 mph27.4 kmh 29.62 in1003.0 mb 0.00 in0.0 mm 0.00 in0.0 mm 0.00 in0.0 mm
12:30 PM 51.9°F11.1°C 37.6°F3.1°C 58% 15.0 mph SW24.1 kmh SW 23.0 mph37.0 kmh 29.62 in1003.0 mb 0.00 in0.0 mm 0.00 in0.0 mm 0.00 in0.0 mm
12:20 PM 52.3°F11.3°C 38.0°F3.3°C 58% 11.0 mph WSW17.7 kmh WSW 23.0 mph37.0 kmh 29.62 in1003.0 mb 0.00 in0.0 mm 0.00 in0.0 mm 0.00 in0.0 mm
12:10 PM 52.4°F11.3°C 37.6°F3.1°C 57% 12.0 mph WSW19.3 kmh WSW 19.0 mph30.6 kmh 29.61 in1002.7 mb 0.00 in0.0 mm 0.00 in0.0 mm 0.00 in0.0 mm
12:00 PM 52.8°F11.6°C 37.5°F3.1°C 56% 11.0 mph WSW17.7 kmh WSW 16.0 mph25.7 kmh 29.61 in1002.7 mb 0.00 in0.0 mm 0.00 in0.0 mm 0.00 in0.0 mm
11:50 AM 53.5°F11.9°C 37.7°F3.2°C 55% 10.0 mph WSW16.1 kmh WSW 17.0 mph27.4 kmh 29.60 in1002.4 mb 0.00 in0.0 mm 0.00 in0.0 mm 0.00 in0.0 mm
11:40 AM 53.0°F11.7°C 37.3°F2.9°C 55% 11.0 mph WSW17.7 kmh WSW 18.0 mph29.0 kmh 29.60 in1002.4 mb 0.00 in0.0 mm 0.00 in0.0 mm 0.00 in0.0 mm
11:30 AM 52.4°F11.3°C 37.2°F2.9°C 56% 12.0 mph WSW19.3 kmh WSW 19.0 mph30.6 kmh 29.60 in1002.4 mb 0.00 in0.0 mm 0.00 in0.0 mm 0.00 in0.0 mm
11:20 AM 52.1°F11.2°C 36.9°F2.7°C 56% 11.0 mph WSW17.7 kmh WSW 16.0 mph25.7 kmh 29.60 in1002.4 mb 0.00 in0.0 mm 0.00 in0.0 mm 0.00 in0.0 mm
11:10 AM 52.5°F11.4°C 36.8°F2.7°C 55% 11.0 mph WSW17.7 kmh WSW 17.0 mph27.4 kmh 29.59 in1002.0 mb 0.00 in0.0 mm 0.00 in0.0 mm 0.00 in0.0 mm
11:00 AM 54.2°F12.3°C 37.4°F3.0°C 53% 10.0 mph WSW16.1 kmh WSW 19.0 mph30.6 kmh 29.59 in1002.0 mb 0.00 in0.0 mm 0.00 in0.0 mm 0.00 in0.0 mm
10:50 AM 54.8°F12.7°C 38.0°F3.3°C 53% 10.0 mph WSW16.1 kmh WSW 15.0 mph24.1 kmh 29.58 in1001.7 mb 0.00 in0.0 mm 0.00 in0.0 mm 0.00 in0.0 mm
10:40 AM 54.7°F12.6°C 36.9°F2.7°C 51% 10.0 mph WSW16.1 kmh WSW 16.0 mph25.7 kmh 29.58 in1001.7 mb 0.00 in0.0 mm 0.00 in0.0 mm 0.00 in0.0 mm
10:30 AM 55.5°F13.1°C 37.7°F3.2°C 51% 8.0 mph WSW12.9 kmh WSW 12.0 mph19.3 kmh 29.57 in1001.4 mb 0.00 in0.0 mm 0.00 in0.0 mm 0.00 in0.0 mm
10:20 AM 54.8°F12.7°C 37.0°F2.8°C 51% 7.0 mph WSW11.3 kmh WSW 11.0 mph17.7 kmh 29.57 in1001.4 mb 0.00 in0.0 mm 0.00 in0.0 mm 0.00 in0.0 mm
10:10 AM 55.5°F13.1°C 36.6°F2.6°C 49% 9.0 mph WSW14.5 kmh WSW 15.0 mph24.1 kmh 29.57 in1001.4 mb 0.00 in0.0 mm 0.00 in0.0 mm 0.00 in0.0 mm
10:00 AM 55.3°F12.9°C 38.0°F3.3°C 52% 5.0 mph WSW8.0 kmh WSW 11.0 mph17.7 kmh 29.57 in1001.4 mb 0.00 in0.0 mm 0.00 in0.0 mm 0.00 in0.0 mm
09:50 AM 54.3°F12.4°C 36.5°F2.5°C 51% 9.0 mph WSW14.5 kmh WSW 12.0 mph19.3 kmh 29.57 in1001.4 mb 0.00 in0.0 mm 0.00 in0.0 mm 0.00 in0.0 mm
09:40 AM 53.3°F11.8°C 36.1°F2.3°C 52% 6.0 mph WSW9.7 kmh WSW 9.0 mph14.5 kmh 29.57 in1001.4 mb 0.00 in0.0 mm 0.00 in0.0 mm 0.00 in0.0 mm
09:30 AM 54.3°F12.4°C 36.5°F2.5°C 51% 10.0 mph WSW16.1 kmh WSW 14.0 mph22.5 kmh 29.58 in1001.7 mb 0.00 in0.0 mm 0.00 in0.0 mm 0.00 in0.0 mm
09:20 AM 52.7°F11.5°C 37.0°F2.8°C 55% 6.0 mph WSW9.7 kmh WSW 10.0 mph16.1 kmh 29.57 in1001.4 mb 0.00 in0.0 mm 0.00 in0.0 mm 0.00 in0.0 mm
09:10 AM 51.3°F10.7°C 37.9°F3.3°C 60% 3.0 mph SW4.8 kmh SW 5.0 mph8.0 kmh 29.57 in1001.4 mb 0.00 in0.0 mm 0.00 in0.0 mm 0.00 in0.0 mm
09:00 AM 49.0°F9.4°C 35.7°F2.1°C 60% 5.0 mph SW8.0 kmh SW 6.0 mph9.7 kmh 29.56 in1001.0 mb 0.00 in0.0 mm 0.00 in0.0 mm 0.00 in0.0 mm
08:50 AM 47.9°F8.8°C 33.8°F1.0°C 58% 1.0 mph SSW1.6 kmh SSW 3.0 mph4.8 kmh 29.56 in1001.0 mb 0.00 in0.0 mm 0.00 in0.0 mm 0.00 in0.0 mm
08:40 AM 48.3°F9.1°C 33.8°F1.0°C 57% 2.0 mph SW3.2 kmh SW 4.0 mph6.4 kmh 29.55 in1000.7 mb 0.00 in0.0 mm 0.00 in0.0 mm 0.00 in0.0 mm
08:30 AM 46.3°F7.9°C 32.7°F0.4°C 59% 1.0 mph SSW1.6 kmh SSW 4.0 mph6.4 kmh 29.55 in1000.7 mb 0.00 in0.0 mm 0.00 in0.0 mm 0.00 in0.0 mm
08:20 AM 43.8°F6.6°C 32.0°F0.0°C 63% Calm Calm 2.0 mph3.2 kmh 29.55 in1000.7 mb 0.00 in0.0 mm 0.00 in0.0 mm 0.00 in0.0 mm
08:10 AM 43.2°F6.2°C 29.8°F-1.2°C 59% Calm Calm -- 29.54 in1000.3 mb 0.00 in0.0 mm 0.00 in0.0 mm 0.00 in0.0 mm
08:00 AM 43.6°F6.4°C 30.2°F-1.0°C 59% Calm Calm -- 29.53 in1000.0 mb 0.00 in0.0 mm 0.00 in0.0 mm 0.00 in0.0 mm
07:50 AM 43.1°F6.2°C 30.1°F-1.1°C 60% Calm Calm -- 29.53 in1000.0 mb 0.00 in0.0 mm 0.00 in0.0 mm 0.00 in0.0 mm
07:40 AM 41.5°F5.3°C 29.8°F-1.2°C 63% Calm Calm -- 29.52 in999.7 mb 0.00 in0.0 mm 0.00 in0.0 mm 0.00 in0.0 mm
07:30 AM 39.1°F3.9°C 28.7°F-1.8°C 66% Calm Calm -- 29.52 in999.7 mb 0.00 in0.0 mm 0.00 in0.0 mm 0.00 in0.0 mm
07:20 AM 39.1°F3.9°C 28.7°F-1.8°C 66% Calm Calm -- 29.52 in999.7 mb 0.00 in0.0 mm 0.00 in0.0 mm 0.00 in0.0 mm
07:10 AM 39.1°F3.9°C 28.7°F-1.8°C 66% Calm Calm -- 29.51 in999.3 mb 0.00 in0.0 mm 0.00 in0.0 mm 0.00 in0.0 mm
07:00 AM 39.5°F4.2°C 28.7°F-1.8°C 65% Calm Calm -- 29.50 in999.0 mb 0.00 in0.0 mm 0.00 in0.0 mm 0.00 in0.0 mm
06:50 AM 39.8°F4.3°C 29.0°F-1.7°C 65% Calm Calm -- 29.49 in998.6 mb 0.00 in0.0 mm 0.00 in0.0 mm 0.00 in0.0 mm
06:40 AM 39.5°F4.2°C 28.7°F-1.8°C 65% Calm Calm -- 29.49 in998.6 mb 0.00 in0.0 mm 0.00 in0.0 mm 0.00 in0.0 mm
06:30 AM 39.2°F4.0°C 28.4°F-2.0°C 65% Calm Calm 2.0 mph3.2 kmh 29.49 in998.6 mb 0.00 in0.0 mm 0.00 in0.0 mm 0.00 in0.0 mm
06:20 AM 39.3°F4.1°C 28.5°F-1.9°C 65% Calm Calm 2.0 mph3.2 kmh 29.49 in998.6 mb 0.00 in0.0 mm 0.00 in0.0 mm 0.00 in0.0 mm
06:10 AM 40.3°F4.6°C 28.7°F-1.8°C 63% Calm Calm -- 29.48 in998.3 mb 0.00 in0.0 mm 0.00 in0.0 mm 0.00 in0.0 mm
06:00 AM 42.4°F5.8°C 28.7°F-1.8°C 58% Calm Calm -- 29.48 in998.3 mb 0.00 in0.0 mm 0.00 in0.0 mm 0.00 in0.0 mm
05:50 AM 44.6°F7.0°C 29.0°F-1.7°C 54% Calm Calm -- 29.47 in998.0 mb 0.00 in0.0 mm 0.00 in0.0 mm 0.00 in0.0 mm
05:40 AM 45.1°F7.3°C 29.4°F-1.4°C 54% 1.0 mph S1.6 kmh S 3.0 mph4.8 kmh 29.46 in997.6 mb 0.00 in0.0 mm 0.00 in0.0 mm 0.00 in0.0 mm
05:30 AM 44.4°F6.9°C 29.7°F-1.3°C 56% 3.0 mph S4.8 kmh S 6.0 mph9.7 kmh 29.43 in996.6 mb 0.00 in0.0 mm 0.00 in0.0 mm 0.00 in0.0 mm
05:20 AM 42.4°F5.8°C 29.9°F-1.2°C 61% 2.0 mph S3.2 kmh S 3.0 mph4.8 kmh 29.43 in996.6 mb 0.00 in0.0 mm 0.00 in0.0 mm 0.00 in0.0 mm
05:10 AM 38.6°F3.7°C 29.7°F-1.3°C 70% 1.0 mph S1.6 kmh S 2.0 mph3.2 kmh 29.42 in996.3 mb 0.00 in0.0 mm 0.00 in0.0 mm 0.00 in0.0 mm
05:00 AM 36.5°F2.5°C 29.0°F-1.7°C 74% Calm Calm -- 29.43 in996.6 mb 0.00 in0.0 mm 0.00 in0.0 mm 0.00 in0.0 mm
04:50 AM 36.7°F2.6°C 28.9°F-1.7°C 73% Calm Calm 1.0 mph1.6 kmh 29.43 in996.6 mb 0.00 in0.0 mm 0.00 in0.0 mm 0.00 in0.0 mm
04:40 AM 37.4°F3.0°C 29.2°F-1.6°C 72% Calm Calm -- 29.42 in996.3 mb 0.00 in0.0 mm 0.00 in0.0 mm 0.00 in0.0 mm
04:30 AM 38.2°F3.4°C 30.0°F-1.1°C 72% Calm Calm 2.0 mph3.2 kmh 29.42 in996.3 mb 0.00 in0.0 mm 0.00 in0.0 mm 0.00 in0.0 mm
04:20 AM 38.9°F3.8°C 29.6°F-1.3°C 69% Calm Calm -- 29.41 in995.9 mb 0.00 in0.0 mm 0.00 in0.0 mm 0.00 in0.0 mm
04:10 AM 40.8°F4.9°C 30.3°F-0.9°C 66% 1.0 mph WSW1.6 kmh WSW 1.0 mph1.6 kmh 29.41 in995.9 mb 0.00 in0.0 mm 0.00 in0.0 mm 0.00 in0.0 mm
04:00 AM 41.7°F5.4°C 30.8°F-0.7°C 65% 1.0 mph W1.6 kmh W 2.0 mph3.2 kmh 29.41 in995.9 mb 0.00 in0.0 mm 0.00 in0.0 mm 0.00 in0.0 mm
03:50 AM 40.8°F4.9°C 30.7°F-0.7°C 67% 1.0 mph W1.6 kmh W 2.0 mph3.2 kmh 29.41 in995.9 mb 0.00 in0.0 mm 0.00 in0.0 mm 0.00 in0.0 mm
03:40 AM 41.2°F5.1°C 31.1°F-0.5°C 67% Calm Calm -- 29.41 in995.9 mb 0.00 in0.0 mm 0.00 in0.0 mm 0.00 in0.0 mm
03:30 AM 41.6°F5.3°C 31.1°F-0.5°C 66% Calm Calm -- 29.41 in995.9 mb 0.00 in0.0 mm 0.00 in0.0 mm 0.00 in0.0 mm
03:20 AM 41.8°F5.4°C 30.9°F-0.6°C 65% Calm Calm -- 29.41 in995.9 mb 0.00 in0.0 mm 0.00 in0.0 mm 0.00 in0.0 mm
03:10 AM 42.1°F5.6°C 30.8°F-0.7°C 64% Calm Calm -- 29.41 in995.9 mb 0.00 in0.0 mm 0.00 in0.0 mm 0.00 in0.0 mm
03:00 AM 42.4°F5.8°C 30.7°F-0.7°C 63% Calm Calm -- 29.42 in996.3 mb 0.00 in0.0 mm 0.00 in0.0 mm 0.00 in0.0 mm
02:50 AM 43.0°F6.1°C 30.9°F-0.6°C 62% Calm Calm -- 29.42 in996.3 mb 0.00 in0.0 mm 0.00 in0.0 mm 0.00 in0.0 mm
02:40 AM 43.2°F6.2°C 30.6°F-0.8°C 61% Calm Calm -- 29.42 in996.3 mb 0.00 in0.0 mm 0.00 in0.0 mm 0.00 in0.0 mm
02:30 AM 42.8°F6.0°C 30.3°F-0.9°C 61% Calm Calm 2.0 mph3.2 kmh 29.43 in996.6 mb 0.00 in0.0 mm 0.00 in0.0 mm 0.00 in0.0 mm
02:20 AM 42.5°F5.8°C 30.0°F-1.1°C 61% Calm Calm -- 29.43 in996.6 mb 0.00 in0.0 mm 0.00 in0.0 mm 0.00 in0.0 mm
02:10 AM 42.8°F6.0°C 30.3°F-0.9°C 61% Calm Calm 1.0 mph1.6 kmh 29.43 in996.6 mb 0.00 in0.0 mm 0.00 in0.0 mm 0.00 in0.0 mm
02:00 AM 42.4°F5.8°C 30.7°F-0.7°C 63% Calm Calm -- 29.44 in997.0 mb 0.00 in0.0 mm 0.00 in0.0 mm 0.00 in0.0 mm
01:50 AM 42.3°F5.7°C 30.2°F-1.0°C 62% Calm Calm -- 29.44 in997.0 mb 0.00 in0.0 mm 0.00 in0.0 mm 0.00 in0.0 mm
01:40 AM 42.6°F5.9°C 30.5°F-0.8°C 62% 2.0 mph ENE3.2 kmh ENE 3.0 mph4.8 kmh 29.45 in997.3 mb 0.00 in0.0 mm 0.00 in0.0 mm 0.00 in0.0 mm
01:30 AM 42.7°F5.9°C 30.6°F-0.8°C 62% Calm Calm -- 29.45 in997.3 mb 0.00 in0.0 mm 0.00 in0.0 mm 0.00 in0.0 mm
01:20 AM 42.1°F5.6°C 30.4°F-0.9°C 63% 1.0 mph ENE1.6 kmh ENE 1.0 mph1.6 kmh 29.45 in997.3 mb 0.00 in0.0 mm 0.00 in0.0 mm 0.00 in0.0 mm
01:10 AM 42.1°F5.6°C 30.4°F-0.9°C 63% Calm Calm -- 29.45 in997.3 mb 0.00 in0.0 mm 0.00 in0.0 mm 0.00 in0.0 mm
01:00 AM 42.7°F5.9°C 29.8°F-1.2°C 60% Calm Calm -- 29.44 in997.0 mb 0.00 in0.0 mm 0.00 in0.0 mm 0.00 in0.0 mm
12:50 AM 43.3°F6.3°C 30.3°F-0.9°C 60% Calm Calm -- 29.45 in997.3 mb 0.00 in0.0 mm 0.00 in0.0 mm 0.00 in0.0 mm
12:40 AM 44.3°F6.8°C 30.0°F-1.1°C 57% Calm Calm -- 29.45 in997.3 mb 0.00 in0.0 mm 0.00 in0.0 mm 0.00 in0.0 mm
12:30 AM 46.8°F8.2°C 30.1°F-1.1°C 52% 1.0 mph WSW1.6 kmh WSW 2.0 mph3.2 kmh 29.45 in997.3 mb 0.00 in0.0 mm 0.00 in0.0 mm 0.00 in0.0 mm
12:20 AM 48.9°F9.4°C 29.5°F-1.4°C 47% 2.0 mph WNW3.2 kmh WNW 3.0 mph4.8 kmh 29.45 in997.3 mb 0.00 in0.0 mm 0.00 in0.0 mm 0.00 in0.0 mm
12:10 AM 50.0°F10.0°C 29.5°F-1.4°C 45% 2.0 mph NW3.2 kmh NW 4.0 mph6.4 kmh 29.45 in997.3 mb 0.00 in0.0 mm 0.00 in0.0 mm 0.00 in0.0 mm
12:00 AM 52.7°F11.5°C 29.0°F-1.7°C 40% 1.0 mph NW1.6 kmh NW 2.0 mph3.2 kmh 29.45 in997.3 mb 0.00 in0.0 mm 0.00 in0.0 mm 0.00 in0.0 mm